sensor_id;sensor_type;location;lat;lon;timestamp;P1;durP1;ratioP1;P2;durP2;ratioP2
8094;SDS011;4090;49.270;8.696;2022-10-31T00:02:21;9.93;;;5.20;;
8094;SDS011;4090;49.270;8.696;2022-10-31T00:05:03;12.10;;;5.40;;
8094;SDS011;4090;49.270;8.696;2022-10-31T00:07:45;12.02;;;5.28;;
8094;SDS011;4090;49.270;8.696;2022-10-31T00:10:27;10.13;;;5.07;;
8094;SDS011;4090;49.270;8.696;2022-10-31T00:13:10;13.43;;;5.25;;
8094;SDS011;4090;49.270;8.696;2022-10-31T00:15:53;12.55;;;5.35;;
8094;SDS011;4090;49.270;8.696;2022-10-31T00:18:35;10.43;;;4.68;;
8094;SDS011;4090;49.270;8.696;2022-10-31T00:21:17;11.65;;;5.10;;
8094;SDS011;4090;49.270;8.696;2022-10-31T00:23:59;11.82;;;5.70;;
8094;SDS011;4090;49.270;8.696;2022-10-31T00:26:42;11.73;;;5.65;;
8094;SDS011;4090;49.270;8.696;2022-10-31T00:29:25;10.60;;;5.20;;
8094;SDS011;4090;49.270;8.696;2022-10-31T00:32:07;12.75;;;5.13;;
8094;SDS011;4090;49.270;8.696;2022-10-31T00:34:49;7.63;;;4.95;;
8094;SDS011;4090;49.270;8.696;2022-10-31T00:37:31;11.82;;;5.22;;
8094;SDS011;4090;49.270;8.696;2022-10-31T00:40:13;15.18;;;5.28;;
8094;SDS011;4090;49.270;8.696;2022-10-31T00:42:55;10.55;;;5.53;;
8094;SDS011;4090;49.270;8.696;2022-10-31T00:45:38;14.88;;;5.80;;
8094;SDS011;4090;49.270;8.696;2022-10-31T00:48:20;12.18;;;4.80;;
8094;SDS011;4090;49.270;8.696;2022-10-31T00:51:02;10.55;;;4.90;;
8094;SDS011;4090;49.270;8.696;2022-10-31T00:53:45;9.68;;;4.65;;
8094;SDS011;4090;49.270;8.696;2022-10-31T00:56:27;9.20;;;5.13;;
8094;SDS011;4090;49.270;8.696;2022-10-31T00:59:09;12.27;;;4.95;;
8094;SDS011;4090;49.270;8.696;2022-10-31T01:01:52;17.02;;;5.43;;
8094;SDS011;4090;49.270;8.696;2022-10-31T01:04:35;11.27;;;5.00;;
8094;SDS011;4090;49.270;8.696;2022-10-31T01:07:16;8.10;;;4.90;;
8094;SDS011;4090;49.270;8.696;2022-10-31T01:09:58;9.05;;;5.20;;
8094;SDS011;4090;49.270;8.696;2022-10-31T01:12:42;13.38;;;5.20;;
8094;SDS011;4090;49.270;8.696;2022-10-31T01:15:27;11.88;;;4.85;;
8094;SDS011;4090;49.270;8.696;2022-10-31T01:18:10;10.10;;;4.93;;
8094;SDS011;4090;49.270;8.696;2022-10-31T01:21:02;10.52;;;4.95;;
8094;SDS011;4090;49.270;8.696;2022-10-31T01:23:46;10.07;;;5.00;;
8094;SDS011;4090;49.270;8.696;2022-10-31T01:26:28;11.30;;;5.32;;
8094;SDS011;4090;49.270;8.696;2022-10-31T01:29:11;14.27;;;5.10;;
8094;SDS011;4090;49.270;8.696;2022-10-31T01:31:54;9.52;;;4.80;;
8094;SDS011;4090;49.270;8.696;2022-10-31T01:34:37;10.75;;;4.68;;
8094;SDS011;4090;49.270;8.696;2022-10-31T01:37:19;10.93;;;4.82;;
8094;SDS011;4090;49.270;8.696;2022-10-31T01:40:03;10.38;;;4.97;;
8094;SDS011;4090;49.270;8.696;2022-10-31T01:42:45;8.30;;;4.97;;
8094;SDS011;4090;49.270;8.696;2022-10-31T01:45:27;10.30;;;5.10;;
8094;SDS011;4090;49.270;8.696;2022-10-31T01:48:11;10.30;;;5.38;;
8094;SDS011;4090;49.270;8.696;2022-10-31T01:50:56;11.82;;;5.32;;
8094;SDS011;4090;49.270;8.696;2022-10-31T01:53:38;8.60;;;5.10;;
8094;SDS011;4090;49.270;8.696;2022-10-31T01:56:21;13.88;;;4.97;;
8094;SDS011;4090;49.270;8.696;2022-10-31T01:59:04;9.82;;;4.82;;
8094;SDS011;4090;49.270;8.696;2022-10-31T02:01:50;9.50;;;4.60;;
8094;SDS011;4090;49.270;8.696;2022-10-31T02:04:33;11.57;;;5.10;;
8094;SDS011;4090;49.270;8.696;2022-10-31T02:07:20;9.45;;;4.70;;
8094;SDS011;4090;49.270;8.696;2022-10-31T02:10:06;14.43;;;5.38;;
8094;SDS011;4090;49.270;8.696;2022-10-31T02:12:50;13.02;;;5.43;;
8094;SDS011;4090;49.270;8.696;2022-10-31T02:19:39;8.93;;;4.78;;
8094;SDS011;4090;49.270;8.696;2022-10-31T02:22:34;12.30;;;5.55;;
8094;SDS011;4090;49.270;8.696;2022-10-31T02:25:24;13.75;;;5.55;;
8094;SDS011;4090;49.270;8.696;2022-10-31T02:32:04;11.38;;;5.10;;
8094;SDS011;4090;49.270;8.696;2022-10-31T02:34:52;11.73;;;5.13;;
8094;SDS011;4090;49.270;8.696;2022-10-31T02:37:40;5.40;;;4.30;;
8094;SDS011;4090;49.270;8.696;2022-10-31T02:40:33;9.30;;;5.45;;
8094;SDS011;4090;49.270;8.696;2022-10-31T02:43:40;12.88;;;5.75;;
8094;SDS011;4090;49.270;8.696;2022-10-31T02:46:28;10.27;;;4.95;;
8094;SDS011;4090;49.270;8.696;2022-10-31T02:49:18;9.98;;;4.78;;
8094;SDS011;4090;49.270;8.696;2022-10-31T02:52:13;13.32;;;4.60;;
8094;SDS011;4090;49.270;8.696;2022-10-31T02:54:56;9.50;;;4.90;;
8094;SDS011;4090;49.270;8.696;2022-10-31T02:57:38;7.72;;;4.78;;
8094;SDS011;4090;49.270;8.696;2022-10-31T03:00:22;13.55;;;5.30;;
8094;SDS011;4090;49.270;8.696;2022-10-31T03:03:05;8.88;;;4.80;;
8094;SDS011;4090;49.270;8.696;2022-10-31T03:05:55;9.98;;;4.85;;
8094;SDS011;4090;49.270;8.696;2022-10-31T03:08:41;6.50;;;4.13;;
8094;SDS011;4090;49.270;8.696;2022-10-31T03:11:31;11.90;;;4.70;;
8094;SDS011;4090;49.270;8.696;2022-10-31T03:14:20;10.45;;;4.38;;
8094;SDS011;4090;49.270;8.696;2022-10-31T03:17:13;10.32;;;4.63;;
8094;SDS011;4090;49.270;8.696;2022-10-31T03:20:02;9.85;;;4.60;;
8094;SDS011;4090;49.270;8.696;2022-10-31T03:22:47;10.27;;;4.38;;
8094;SDS011;4090;49.270;8.696;2022-10-31T03:25:29;9.43;;;4.93;;
8094;SDS011;4090;49.270;8.696;2022-10-31T03:28:13;10.18;;;4.30;;
8094;SDS011;4090;49.270;8.696;2022-10-31T03:31:00;9.38;;;4.10;;
8094;SDS011;4090;49.270;8.696;2022-10-31T03:33:44;8.70;;;4.43;;
8094;SDS011;4090;49.270;8.696;2022-10-31T03:36:29;8.77;;;3.70;;
8094;SDS011;4090;49.270;8.696;2022-10-31T03:39:15;8.70;;;4.45;;
8094;SDS011;4090;49.270;8.696;2022-10-31T03:42:02;7.60;;;4.40;;
8094;SDS011;4090;49.270;8.696;2022-10-31T03:44:49;10.40;;;4.18;;
8094;SDS011;4090;49.270;8.696;2022-10-31T03:47:35;7.18;;;4.55;;
8094;SDS011;4090;49.270;8.696;2022-10-31T03:50:18;7.95;;;4.15;;
8094;SDS011;4090;49.270;8.696;2022-10-31T03:53:02;10.43;;;4.20;;
8094;SDS011;4090;49.270;8.696;2022-10-31T03:55:51;9.10;;;4.65;;
8094;SDS011;4090;49.270;8.696;2022-10-31T03:58:40;10.85;;;4.97;;
8094;SDS011;4090;49.270;8.696;2022-10-31T04:01:28;9.18;;;4.68;;
8094;SDS011;4090;49.270;8.696;2022-10-31T04:04:13;10.23;;;4.13;;
8094;SDS011;4090;49.270;8.696;2022-10-31T04:06:56;9.50;;;4.57;;
8094;SDS011;4090;49.270;8.696;2022-10-31T04:09:43;10.05;;;5.30;;
8094;SDS011;4090;49.270;8.696;2022-10-31T04:12:28;9.73;;;4.93;;
8094;SDS011;4090;49.270;8.696;2022-10-31T04:15:35;9.70;;;4.63;;
8094;SDS011;4090;49.270;8.696;2022-10-31T04:18:20;12.23;;;5.05;;
8094;SDS011;4090;49.270;8.696;2022-10-31T04:21:04;10.13;;;4.88;;
8094;SDS011;4090;49.270;8.696;2022-10-31T04:23:47;12.45;;;5.28;;
8094;SDS011;4090;49.270;8.696;2022-10-31T04:26:38;10.52;;;5.07;;
8094;SDS011;4090;49.270;8.696;2022-10-31T04:29:22;10.73;;;4.63;;
8094;SDS011;4090;49.270;8.696;2022-10-31T04:32:05;10.80;;;4.63;;
8094;SDS011;4090;49.270;8.696;2022-10-31T04:34:46;17.60;;;5.28;;
8094;SDS011;4090;49.270;8.696;2022-10-31T04:37:28;8.82;;;4.90;;
8094;SDS011;4090;49.270;8.696;2022-10-31T04:40:11;9.90;;;5.18;;
8094;SDS011;4090;49.270;8.696;2022-10-31T04:43:31;8.32;;;5.15;;
8094;SDS011;4090;49.270;8.696;2022-10-31T04:46:16;10.27;;;5.25;;
8094;SDS011;4090;49.270;8.696;2022-10-31T04:48:57;8.95;;;5.32;;
8094;SDS011;4090;49.270;8.696;2022-10-31T04:51:39;10.98;;;5.47;;
8094;SDS011;4090;49.270;8.696;2022-10-31T04:54:23;8.43;;;5.20;;
8094;SDS011;4090;49.270;8.696;2022-10-31T04:57:23;10.27;;;5.65;;
8094;SDS011;4090;49.270;8.696;2022-10-31T05:00:06;12.55;;;5.32;;
8094;SDS011;4090;49.270;8.696;2022-10-31T05:02:51;11.23;;;5.82;;
8094;SDS011;4090;49.270;8.696;2022-10-31T05:05:33;14.15;;;5.47;;
8094;SDS011;4090;49.270;8.696;2022-10-31T05:08:17;11.45;;;5.53;;
8094;SDS011;4090;49.270;8.696;2022-10-31T05:11:00;11.25;;;5.47;;
8094;SDS011;4090;49.270;8.696;2022-10-31T05:13:42;14.05;;;6.68;;
8094;SDS011;4090;49.270;8.696;2022-10-31T05:16:27;12.30;;;6.00;;
8094;SDS011;4090;49.270;8.696;2022-10-31T05:19:10;15.77;;;5.47;;
8094;SDS011;4090;49.270;8.696;2022-10-31T05:22:15;13.13;;;5.00;;
8094;SDS011;4090;49.270;8.696;2022-10-31T05:24:57;11.57;;;4.85;;
8094;SDS011;4090;49.270;8.696;2022-10-31T05:27:39;14.80;;;4.90;;
8094;SDS011;4090;49.270;8.696;2022-10-31T05:30:22;10.20;;;4.68;;
8094;SDS011;4090;49.270;8.696;2022-10-31T05:33:06;10.20;;;4.63;;
8094;SDS011;4090;49.270;8.696;2022-10-31T05:36:05;9.93;;;4.32;;
8094;SDS011;4090;49.270;8.696;2022-10-31T05:38:55;7.50;;;4.35;;
8094;SDS011;4090;49.270;8.696;2022-10-31T05:41:39;8.55;;;4.25;;
8094;SDS011;4090;49.270;8.696;2022-10-31T05:44:34;12.65;;;4.80;;
8094;SDS011;4090;49.270;8.696;2022-10-31T05:47:25;13.63;;;4.35;;
8094;SDS011;4090;49.270;8.696;2022-10-31T05:50:27;12.68;;;4.63;;
8094;SDS011;4090;49.270;8.696;2022-10-31T05:53:24;8.10;;;3.88;;
8094;SDS011;4090;49.270;8.696;2022-10-31T05:56:06;8.77;;;3.85;;
8094;SDS011;4090;49.270;8.696;2022-10-31T05:58:48;6.70;;;3.65;;
8094;SDS011;4090;49.270;8.696;2022-10-31T06:01:30;6.35;;;3.80;;
8094;SDS011;4090;49.270;8.696;2022-10-31T06:04:18;8.95;;;4.63;;
8094;SDS011;4090;49.270;8.696;2022-10-31T06:07:00;11.05;;;4.68;;
8094;SDS011;4090;49.270;8.696;2022-10-31T06:09:43;9.38;;;4.38;;
8094;SDS011;4090;49.270;8.696;2022-10-31T06:12:25;10.73;;;4.00;;
8094;SDS011;4090;49.270;8.696;2022-10-31T06:15:27;8.70;;;3.90;;
8094;SDS011;4090;49.270;8.696;2022-10-31T06:18:10;12.52;;;4.32;;
8094;SDS011;4090;49.270;8.696;2022-10-31T06:21:04;6.78;;;3.25;;
8094;SDS011;4090;49.270;8.696;2022-10-31T06:23:46;10.35;;;3.88;;
8094;SDS011;4090;49.270;8.696;2022-10-31T06:26:52;9.45;;;3.88;;
8094;SDS011;4090;49.270;8.696;2022-10-31T06:29:35;7.22;;;3.58;;
8094;SDS011;4090;49.270;8.696;2022-10-31T06:32:20;7.47;;;3.90;;
8094;SDS011;4090;49.270;8.696;2022-10-31T06:35:02;5.97;;;4.00;;
8094;SDS011;4090;49.270;8.696;2022-10-31T06:37:50;8.68;;;3.88;;
8094;SDS011;4090;49.270;8.696;2022-10-31T06:40:49;10.68;;;4.93;;
8094;SDS011;4090;49.270;8.696;2022-10-31T06:43:32;8.25;;;3.90;;
8094;SDS011;4090;49.270;8.696;2022-10-31T06:46:33;13.82;;;4.70;;
8094;SDS011;4090;49.270;8.696;2022-10-31T06:49:41;8.32;;;4.18;;
8094;SDS011;4090;49.270;8.696;2022-10-31T06:52:29;13.07;;;4.53;;
8094;SDS011;4090;49.270;8.696;2022-10-31T06:55:11;9.48;;;4.90;;
8094;SDS011;4090;49.270;8.696;2022-10-31T06:57:53;8.75;;;4.22;;
8094;SDS011;4090;49.270;8.696;2022-10-31T07:00:37;9.90;;;4.32;;
8094;SDS011;4090;49.270;8.696;2022-10-31T07:03:20;10.80;;;4.50;;
8094;SDS011;4090;49.270;8.696;2022-10-31T07:06:02;10.65;;;4.60;;
8094;SDS011;4090;49.270;8.696;2022-10-31T07:08:46;9.98;;;4.03;;
8094;SDS011;4090;49.270;8.696;2022-10-31T07:11:28;13.05;;;4.47;;
8094;SDS011;4090;49.270;8.696;2022-10-31T07:14:11;10.00;;;3.88;;
8094;SDS011;4090;49.270;8.696;2022-10-31T07:16:54;9.07;;;4.03;;
8094;SDS011;4090;49.270;8.696;2022-10-31T07:19:42;8.45;;;4.10;;
8094;SDS011;4090;49.270;8.696;2022-10-31T07:22:31;10.05;;;3.97;;
8094;SDS011;4090;49.270;8.696;2022-10-31T07:25:14;12.90;;;4.00;;
8094;SDS011;4090;49.270;8.696;2022-10-31T07:28:15;9.70;;;4.45;;
8094;SDS011;4090;49.270;8.696;2022-10-31T07:31:00;8.60;;;4.22;;
8094;SDS011;4090;49.270;8.696;2022-10-31T07:33:43;9.98;;;5.07;;
8094;SDS011;4090;49.270;8.696;2022-10-31T07:36:37;8.70;;;4.05;;
8094;SDS011;4090;49.270;8.696;2022-10-31T07:39:19;10.95;;;4.53;;
8094;SDS011;4090;49.270;8.696;2022-10-31T07:42:01;12.63;;;4.45;;
8094;SDS011;4090;49.270;8.696;2022-10-31T07:44:44;11.68;;;4.75;;
8094;SDS011;4090;49.270;8.696;2022-10-31T07:47:45;11.35;;;4.55;;
8094;SDS011;4090;49.270;8.696;2022-10-31T07:50:48;8.88;;;4.63;;
8094;SDS011;4090;49.270;8.696;2022-10-31T07:53:49;13.13;;;4.43;;
8094;SDS011;4090;49.270;8.696;2022-10-31T07:56:41;8.73;;;4.78;;
8094;SDS011;4090;49.270;8.696;2022-10-31T07:59:23;13.70;;;4.50;;
8094;SDS011;4090;49.270;8.696;2022-10-31T08:02:07;12.43;;;4.93;;
8094;SDS011;4090;49.270;8.696;2022-10-31T08:05:09;11.07;;;5.18;;
8094;SDS011;4090;49.270;8.696;2022-10-31T08:08:11;10.02;;;5.13;;
8094;SDS011;4090;49.270;8.696;2022-10-31T08:10:54;12.68;;;5.60;;
8094;SDS011;4090;49.270;8.696;2022-10-31T08:13:36;11.00;;;6.35;;
8094;SDS011;4090;49.270;8.696;2022-10-31T08:16:18;11.43;;;5.88;;
8094;SDS011;4090;49.270;8.696;2022-10-31T08:19:08;9.85;;;5.68;;
8094;SDS011;4090;49.270;8.696;2022-10-31T08:21:52;9.43;;;5.85;;
8094;SDS011;4090;49.270;8.696;2022-10-31T08:24:37;10.07;;;5.53;;
8094;SDS011;4090;49.270;8.696;2022-10-31T08:27:19;12.70;;;6.03;;
8094;SDS011;4090;49.270;8.696;2022-10-31T08:30:01;13.85;;;6.30;;
8094;SDS011;4090;49.270;8.696;2022-10-31T08:32:45;11.05;;;6.40;;
8094;SDS011;4090;49.270;8.696;2022-10-31T08:35:47;19.63;;;6.15;;
8094;SDS011;4090;49.270;8.696;2022-10-31T08:38:48;13.52;;;6.20;;
8094;SDS011;4090;49.270;8.696;2022-10-31T08:41:32;9.70;;;6.25;;
8094;SDS011;4090;49.270;8.696;2022-10-31T08:44:15;13.35;;;6.78;;
8094;SDS011;4090;49.270;8.696;2022-10-31T08:46:57;16.95;;;7.88;;
8094;SDS011;4090;49.270;8.696;2022-10-31T08:49:39;16.13;;;8.93;;
8094;SDS011;4090;49.270;8.696;2022-10-31T08:52:22;15.07;;;7.32;;
8094;SDS011;4090;49.270;8.696;2022-10-31T08:55:06;11.88;;;6.65;;
8094;SDS011;4090;49.270;8.696;2022-10-31T08:58:09;12.93;;;6.65;;
8094;SDS011;4090;49.270;8.696;2022-10-31T09:00:59;14.23;;;6.78;;
8094;SDS011;4090;49.270;8.696;2022-10-31T09:03:42;11.93;;;6.65;;
8094;SDS011;4090;49.270;8.696;2022-10-31T09:06:24;9.52;;;6.30;;
8094;SDS011;4090;49.270;8.696;2022-10-31T09:09:07;13.88;;;6.20;;
8094;SDS011;4090;49.270;8.696;2022-10-31T09:11:51;12.18;;;6.90;;
8094;SDS011;4090;49.270;8.696;2022-10-31T09:14:54;18.45;;;6.70;;
8094;SDS011;4090;49.270;8.696;2022-10-31T09:17:52;12.02;;;7.18;;
8094;SDS011;4090;49.270;8.696;2022-10-31T09:20:47;10.55;;;6.65;;
8094;SDS011;4090;49.270;8.696;2022-10-31T09:23:31;11.70;;;6.65;;
8094;SDS011;4090;49.270;8.696;2022-10-31T09:26:14;11.82;;;6.70;;
8094;SDS011;4090;49.270;8.696;2022-10-31T09:29:10;12.27;;;7.28;;
8094;SDS011;4090;49.270;8.696;2022-10-31T09:31:55;14.27;;;6.90;;
8094;SDS011;4090;49.270;8.696;2022-10-31T09:34:45;14.18;;;6.57;;
8094;SDS011;4090;49.270;8.696;2022-10-31T09:37:32;17.08;;;7.20;;
8094;SDS011;4090;49.270;8.696;2022-10-31T09:40:14;12.20;;;7.30;;
8094;SDS011;4090;49.270;8.696;2022-10-31T09:42:58;13.98;;;6.95;;
8094;SDS011;4090;49.270;8.696;2022-10-31T09:45:50;13.05;;;7.05;;
8094;SDS011;4090;49.270;8.696;2022-10-31T09:48:56;11.98;;;6.60;;
8094;SDS011;4090;49.270;8.696;2022-10-31T09:52:05;11.05;;;6.75;;
8094;SDS011;4090;49.270;8.696;2022-10-31T09:54:54;11.32;;;7.60;;
8094;SDS011;4090;49.270;8.696;2022-10-31T09:57:39;14.25;;;6.93;;
8094;SDS011;4090;49.270;8.696;2022-10-31T10:00:23;16.85;;;7.78;;
8094;SDS011;4090;49.270;8.696;2022-10-31T10:03:06;13.32;;;7.32;;
8094;SDS011;4090;49.270;8.696;2022-10-31T10:06:02;11.10;;;6.53;;
8094;SDS011;4090;49.270;8.696;2022-10-31T10:09:11;11.77;;;6.65;;
8094;SDS011;4090;49.270;8.696;2022-10-31T10:12:09;10.93;;;6.90;;
8094;SDS011;4090;49.270;8.696;2022-10-31T10:15:19;14.80;;;7.18;;
8094;SDS011;4090;49.270;8.696;2022-10-31T10:18:25;13.75;;;7.10;;
8094;SDS011;4090;49.270;8.696;2022-10-31T10:21:19;10.98;;;6.22;;
8094;SDS011;4090;49.270;8.696;2022-10-31T10:24:11;15.77;;;7.28;;
8094;SDS011;4090;49.270;8.696;2022-10-31T10:27:14;13.48;;;6.97;;
8094;SDS011;4090;49.270;8.696;2022-10-31T10:30:03;12.43;;;6.95;;
8094;SDS011;4090;49.270;8.696;2022-10-31T10:32:52;15.02;;;7.63;;
8094;SDS011;4090;49.270;8.696;2022-10-31T10:35:39;12.57;;;6.82;;
8094;SDS011;4090;49.270;8.696;2022-10-31T10:38:26;13.48;;;7.70;;
8094;SDS011;4090;49.270;8.696;2022-10-31T10:41:12;13.45;;;8.13;;
8094;SDS011;4090;49.270;8.696;2022-10-31T10:43:57;12.32;;;6.72;;
8094;SDS011;4090;49.270;8.696;2022-10-31T10:46:40;10.95;;;6.97;;
8094;SDS011;4090;49.270;8.696;2022-10-31T10:49:43;13.40;;;7.05;;
8094;SDS011;4090;49.270;8.696;2022-10-31T10:52:31;13.27;;;6.60;;
8094;SDS011;4090;49.270;8.696;2022-10-31T10:55:27;12.52;;;6.55;;
8094;SDS011;4090;49.270;8.696;2022-10-31T10:58:14;12.05;;;7.10;;
8094;SDS011;4090;49.270;8.696;2022-10-31T11:00:56;13.90;;;7.70;;
8094;SDS011;4090;49.270;8.696;2022-10-31T11:03:38;11.23;;;6.82;;
8094;SDS011;4090;49.270;8.696;2022-10-31T11:06:21;13.15;;;7.78;;
8094;SDS011;4090;49.270;8.696;2022-10-31T11:09:08;12.48;;;7.28;;
8094;SDS011;4090;49.270;8.696;2022-10-31T11:11:52;13.88;;;7.20;;
8094;SDS011;4090;49.270;8.696;2022-10-31T11:14:42;16.33;;;8.05;;
8094;SDS011;4090;49.270;8.696;2022-10-31T11:17:28;16.98;;;8.52;;
8094;SDS011;4090;49.270;8.696;2022-10-31T11:20:22;15.82;;;7.40;;
8094;SDS011;4090;49.270;8.696;2022-10-31T11:23:16;15.68;;;7.88;;
8094;SDS011;4090;49.270;8.696;2022-10-31T11:26:01;16.88;;;7.45;;
8094;SDS011;4090;49.270;8.696;2022-10-31T11:28:55;16.55;;;7.60;;
8094;SDS011;4090;49.270;8.696;2022-10-31T11:31:37;12.52;;;7.60;;
8094;SDS011;4090;49.270;8.696;2022-10-31T11:34:28;16.80;;;7.55;;
8094;SDS011;4090;49.270;8.696;2022-10-31T11:37:12;15.05;;;9.07;;
8094;SDS011;4090;49.270;8.696;2022-10-31T11:39:57;13.88;;;7.40;;
8094;SDS011;4090;49.270;8.696;2022-10-31T11:42:41;17.38;;;8.88;;
8094;SDS011;4090;49.270;8.696;2022-10-31T11:45:29;13.27;;;7.50;;
8094;SDS011;4090;49.270;8.696;2022-10-31T11:48:15;14.30;;;7.65;;
8094;SDS011;4090;49.270;8.696;2022-10-31T11:50:58;15.65;;;7.80;;
8094;SDS011;4090;49.270;8.696;2022-10-31T11:53:47;16.17;;;7.78;;
8094;SDS011;4090;49.270;8.696;2022-10-31T11:56:38;14.27;;;7.57;;
8094;SDS011;4090;49.270;8.696;2022-10-31T11:59:22;16.08;;;7.22;;
8094;SDS011;4090;49.270;8.696;2022-10-31T12:02:17;12.75;;;7.25;;
8094;SDS011;4090;49.270;8.696;2022-10-31T12:05:02;11.27;;;7.43;;
8094;SDS011;4090;49.270;8.696;2022-10-31T12:07:49;15.77;;;7.25;;
8094;SDS011;4090;49.270;8.696;2022-10-31T12:10:31;13.98;;;7.60;;
8094;SDS011;4090;49.270;8.696;2022-10-31T12:13:28;13.82;;;7.35;;
8094;SDS011;4090;49.270;8.696;2022-10-31T12:16:15;13.98;;;7.45;;
8094;SDS011;4090;49.270;8.696;2022-10-31T12:19:05;17.10;;;8.77;;
8094;SDS011;4090;49.270;8.696;2022-10-31T12:22:04;13.43;;;8.23;;
8094;SDS011;4090;49.270;8.696;2022-10-31T12:24:54;15.50;;;7.53;;
8094;SDS011;4090;49.270;8.696;2022-10-31T12:31:09;17.13;;;8.23;;
8094;SDS011;4090;49.270;8.696;2022-10-31T12:34:12;16.02;;;8.27;;
8094;SDS011;4090;49.270;8.696;2022-10-31T12:37:13;14.50;;;8.27;;
8094;SDS011;4090;49.270;8.696;2022-10-31T12:40:05;17.98;;;8.52;;
8094;SDS011;4090;49.270;8.696;2022-10-31T12:43:03;15.18;;;7.95;;
8094;SDS011;4090;49.270;8.696;2022-10-31T12:45:56;12.52;;;7.55;;
8094;SDS011;4090;49.270;8.696;2022-10-31T12:48:52;15.70;;;8.45;;
8094;SDS011;4090;49.270;8.696;2022-10-31T12:51:56;13.23;;;7.78;;
8094;SDS011;4090;49.270;8.696;2022-10-31T12:54:51;12.32;;;7.57;;
8094;SDS011;4090;49.270;8.696;2022-10-31T12:57:45;15.48;;;7.47;;
8094;SDS011;4090;49.270;8.696;2022-10-31T13:00:29;14.00;;;7.07;;
8094;SDS011;4090;49.270;8.696;2022-10-31T13:03:17;16.63;;;7.10;;
8094;SDS011;4090;49.270;8.696;2022-10-31T13:06:07;11.40;;;7.25;;
8094;SDS011;4090;49.270;8.696;2022-10-31T13:08:55;14.45;;;6.65;;
8094;SDS011;4090;49.270;8.696;2022-10-31T13:11:42;8.50;;;5.95;;
8094;SDS011;4090;49.270;8.696;2022-10-31T13:14:27;11.23;;;6.65;;
8094;SDS011;4090;49.270;8.696;2022-10-31T13:17:13;12.30;;;6.45;;
8094;SDS011;4090;49.270;8.696;2022-10-31T13:20:08;11.60;;;6.30;;
8094;SDS011;4090;49.270;8.696;2022-10-31T13:23:03;12.05;;;6.38;;
8094;SDS011;4090;49.270;8.696;2022-10-31T13:25:52;9.02;;;6.72;;
8094;SDS011;4090;49.270;8.696;2022-10-31T13:28:38;10.05;;;6.47;;
8094;SDS011;4090;49.270;8.696;2022-10-31T13:31:25;14.10;;;6.60;;
8094;SDS011;4090;49.270;8.696;2022-10-31T13:34:09;13.95;;;6.32;;
8094;SDS011;4090;49.270;8.696;2022-10-31T13:37:00;12.27;;;6.30;;
8094;SDS011;4090;49.270;8.696;2022-10-31T13:39:51;11.05;;;6.22;;
8094;SDS011;4090;49.270;8.696;2022-10-31T13:42:52;12.68;;;7.60;;
8094;SDS011;4090;49.270;8.696;2022-10-31T13:45:47;11.05;;;7.22;;
8094;SDS011;4090;49.270;8.696;2022-10-31T13:48:34;14.98;;;7.35;;
8094;SDS011;4090;49.270;8.696;2022-10-31T13:51:24;15.85;;;6.55;;
8094;SDS011;4090;49.270;8.696;2022-10-31T13:54:19;12.43;;;6.60;;
8094;SDS011;4090;49.270;8.696;2022-10-31T13:57:06;12.73;;;6.50;;
8094;SDS011;4090;49.270;8.696;2022-10-31T13:59:49;15.65;;;7.80;;
8094;SDS011;4090;49.270;8.696;2022-10-31T14:02:35;14.52;;;6.57;;
8094;SDS011;4090;49.270;8.696;2022-10-31T14:05:21;13.52;;;5.97;;
8094;SDS011;4090;49.270;8.696;2022-10-31T14:08:05;11.43;;;5.18;;
8094;SDS011;4090;49.270;8.696;2022-10-31T14:10:57;9.60;;;4.95;;
8094;SDS011;4090;49.270;8.696;2022-10-31T14:13:42;14.85;;;5.80;;
8094;SDS011;4090;49.270;8.696;2022-10-31T14:16:26;10.23;;;5.03;;
8094;SDS011;4090;49.270;8.696;2022-10-31T14:19:14;7.38;;;4.25;;
8094;SDS011;4090;49.270;8.696;2022-10-31T14:21:58;11.88;;;5.30;;
8094;SDS011;4090;49.270;8.696;2022-10-31T14:24:40;10.30;;;4.72;;
8094;SDS011;4090;49.270;8.696;2022-10-31T14:27:33;7.97;;;4.10;;
8094;SDS011;4090;49.270;8.696;2022-10-31T14:30:19;8.68;;;4.55;;
8094;SDS011;4090;49.270;8.696;2022-10-31T14:33:09;9.93;;;4.40;;
8094;SDS011;4090;49.270;8.696;2022-10-31T14:35:59;9.02;;;4.80;;
8094;SDS011;4090;49.270;8.696;2022-10-31T14:38:48;12.63;;;5.07;;
8094;SDS011;4090;49.270;8.696;2022-10-31T14:41:43;11.48;;;4.55;;
8094;SDS011;4090;49.270;8.696;2022-10-31T14:47:44;8.63;;;5.65;;
8094;SDS011;4090;49.270;8.696;2022-10-31T14:50:37;13.68;;;6.82;;
8094;SDS011;4090;49.270;8.696;2022-10-31T14:53:24;12.70;;;7.43;;
8094;SDS011;4090;49.270;8.696;2022-10-31T14:56:11;21.95;;;7.47;;
8094;SDS011;4090;49.270;8.696;2022-10-31T14:58:57;15.48;;;6.70;;
8094;SDS011;4090;49.270;8.696;2022-10-31T15:01:41;12.57;;;6.40;;
8094;SDS011;4090;49.270;8.696;2022-10-31T15:04:34;11.10;;;6.45;;
8094;SDS011;4090;49.270;8.696;2022-10-31T15:07:18;13.57;;;6.25;;
8094;SDS011;4090;49.270;8.696;2022-10-31T15:10:03;11.45;;;5.95;;
8094;SDS011;4090;49.270;8.696;2022-10-31T15:12:47;9.95;;;6.00;;
8094;SDS011;4090;49.270;8.696;2022-10-31T15:15:29;18.90;;;5.88;;
8094;SDS011;4090;49.270;8.696;2022-10-31T15:18:13;10.07;;;6.20;;
8094;SDS011;4090;49.270;8.696;2022-10-31T15:21:00;8.30;;;5.78;;
8094;SDS011;4090;49.270;8.696;2022-10-31T15:23:42;12.85;;;5.50;;
8094;SDS011;4090;49.270;8.696;2022-10-31T15:26:29;16.48;;;6.35;;
8094;SDS011;4090;49.270;8.696;2022-10-31T15:29:14;12.57;;;5.47;;
8094;SDS011;4090;49.270;8.696;2022-10-31T15:31:58;9.43;;;5.70;;
8094;SDS011;4090;49.270;8.696;2022-10-31T15:34:41;10.77;;;6.75;;
8094;SDS011;4090;49.270;8.696;2022-10-31T15:37:26;14.52;;;6.85;;
8094;SDS011;4090;49.270;8.696;2022-10-31T15:40:12;16.02;;;6.90;;
8094;SDS011;4090;49.270;8.696;2022-10-31T15:42:57;12.25;;;6.93;;
8094;SDS011;4090;49.270;8.696;2022-10-31T15:45:41;13.70;;;7.72;;
8094;SDS011;4090;49.270;8.696;2022-10-31T15:48:23;12.48;;;7.45;;
8094;SDS011;4090;49.270;8.696;2022-10-31T15:51:06;12.55;;;7.35;;
8094;SDS011;4090;49.270;8.696;2022-10-31T15:53:49;16.42;;;8.52;;
8094;SDS011;4090;49.270;8.696;2022-10-31T15:56:32;13.73;;;7.95;;
8094;SDS011;4090;49.270;8.696;2022-10-31T15:59:17;15.80;;;7.85;;
8094;SDS011;4090;49.270;8.696;2022-10-31T16:02:07;15.65;;;8.10;;
8094;SDS011;4090;49.270;8.696;2022-10-31T16:04:52;15.13;;;7.78;;
8094;SDS011;4090;49.270;8.696;2022-10-31T16:07:36;15.18;;;7.53;;
8094;SDS011;4090;49.270;8.696;2022-10-31T16:10:23;16.80;;;7.30;;
8094;SDS011;4090;49.270;8.696;2022-10-31T16:13:06;12.50;;;7.05;;
8094;SDS011;4090;49.270;8.696;2022-10-31T16:15:54;16.25;;;8.45;;
8094;SDS011;4090;49.270;8.696;2022-10-31T16:18:39;12.32;;;6.90;;
8094;SDS011;4090;49.270;8.696;2022-10-31T16:21:23;14.13;;;6.93;;
8094;SDS011;4090;49.270;8.696;2022-10-31T16:24:12;14.00;;;7.85;;
8094;SDS011;4090;49.270;8.696;2022-10-31T16:27:02;11.63;;;7.60;;
8094;SDS011;4090;49.270;8.696;2022-10-31T16:29:46;15.05;;;8.18;;
8094;SDS011;4090;49.270;8.696;2022-10-31T16:32:30;15.35;;;8.23;;
8094;SDS011;4090;49.270;8.696;2022-10-31T16:35:18;12.48;;;7.85;;
8094;SDS011;4090;49.270;8.696;2022-10-31T16:38:05;11.68;;;7.60;;
8094;SDS011;4090;49.270;8.696;2022-10-31T16:40:49;11.80;;;6.30;;
8094;SDS011;4090;49.270;8.696;2022-10-31T16:43:33;15.63;;;7.28;;
8094;SDS011;4090;49.270;8.696;2022-10-31T16:46:18;17.63;;;6.50;;
8094;SDS011;4090;49.270;8.696;2022-10-31T16:49:03;12.57;;;6.70;;
8094;SDS011;4090;49.270;8.696;2022-10-31T16:51:45;13.35;;;6.63;;
8094;SDS011;4090;49.270;8.696;2022-10-31T16:54:27;13.93;;;6.97;;
8094;SDS011;4090;49.270;8.696;2022-10-31T16:57:12;12.50;;;7.05;;
8094;SDS011;4090;49.270;8.696;2022-10-31T16:59:58;17.60;;;7.18;;
8094;SDS011;4090;49.270;8.696;2022-10-31T17:02:40;10.73;;;6.68;;
8094;SDS011;4090;49.270;8.696;2022-10-31T17:05:23;15.23;;;7.30;;
8094;SDS011;4090;49.270;8.696;2022-10-31T17:08:09;11.77;;;6.68;;
8094;SDS011;4090;49.270;8.696;2022-10-31T17:10:51;12.73;;;6.75;;
8094;SDS011;4090;49.270;8.696;2022-10-31T17:13:36;12.93;;;6.95;;
8094;SDS011;4090;49.270;8.696;2022-10-31T17:16:20;42.90;;;21.10;;
8094;SDS011;4090;49.270;8.696;2022-10-31T17:19:02;54.33;;;23.92;;
8094;SDS011;4090;49.270;8.696;2022-10-31T17:21:44;42.38;;;21.52;;
8094;SDS011;4090;49.270;8.696;2022-10-31T17:24:26;36.47;;;17.20;;